createdAt,value
2017-10-07T00:01:44.451Z,101468.66
2017-10-07T00:04:13.078Z,101462.59
2017-10-07T00:06:40.499Z,101464.39
2017-10-07T00:09:08.401Z,101462.17
2017-10-07T00:11:37.502Z,101461.29
2017-10-07T00:14:04.660Z,101456.95
2017-10-07T00:16:32.036Z,101458.67
2017-10-07T00:18:59.209Z,101461.78
2017-10-07T00:21:26.364Z,101455.25
2017-10-07T00:23:53.519Z,101452.14
2017-10-07T00:26:20.669Z,101452.14
2017-10-07T00:28:47.810Z,101449.11
2017-10-07T00:31:14.953Z,101446.11
2017-10-07T00:33:42.119Z,101443.89
2017-10-07T00:36:09.269Z,101442.58
2017-10-07T00:38:36.435Z,101443.08
2017-10-07T00:41:03.582Z,101440.81
2017-10-07T00:43:30.721Z,101443.00
2017-10-07T00:45:58.310Z,101442.12
2017-10-07T00:48:25.485Z,101438.66
2017-10-07T00:50:52.648Z,101440.47
2017-10-07T00:53:19.784Z,101433.44
2017-10-07T00:55:46.929Z,101430.44
2017-10-07T00:58:14.088Z,101431.33
2017-10-07T01:00:41.224Z,101427.83
2017-10-07T01:03:08.365Z,101432.63
2017-10-07T01:05:35.501Z,101423.07
2017-10-07T01:08:02.656Z,101428.30
2017-10-07T01:10:29.812Z,101424.00
2017-10-07T01:12:56.968Z,101420.03
2017-10-07T01:15:24.395Z,101413.05
2017-10-07T01:17:51.556Z,101406.56
2017-10-07T01:20:18.720Z,101400.88
2017-10-07T01:22:45.861Z,101394.34
2017-10-07T01:25:13.005Z,101393.92
2017-10-07T01:27:40.151Z,101396.06
2017-10-07T01:30:07.657Z,101395.64
2017-10-07T01:32:34.820Z,101395.23
2017-10-07T01:35:01.983Z,101386.50
2017-10-07T01:37:29.149Z,101387.39
2017-10-07T01:39:56.313Z,101384.78
2017-10-07T01:42:23.467Z,101385.20
2017-10-07T01:44:50.613Z,101381.70
2017-10-07T01:47:17.753Z,101382.59
2017-10-07T01:49:44.915Z,101376.94
2017-10-07T01:52:12.076Z,101372.56
2017-10-07T01:54:39.231Z,101362.58
2017-10-07T01:57:06.387Z,101357.36
2017-10-07T01:59:33.533Z,101349.09
2017-10-07T02:02:00.703Z,101357.77
2017-10-07T02:04:28.017Z,101354.70
2017-10-07T02:06:55.180Z,101360.85
2017-10-07T02:09:22.321Z,101357.36
2017-10-07T02:11:49.466Z,101363.05
2017-10-07T02:14:16.632Z,101365.66
2017-10-07T02:16:43.794Z,101362.11
2017-10-07T02:19:10.938Z,101364.34
2017-10-07T02:21:38.104Z,101363.05
2017-10-07T02:24:05.260Z,101360.85
2017-10-07T02:26:32.405Z,101365.19
2017-10-07T02:28:59.545Z,101362.16
2017-10-07T02:31:26.707Z,101363.89
2017-10-07T02:33:53.859Z,101357.81
2017-10-07T02:36:21.001Z,101357.36
2017-10-07T02:38:48.161Z,101353.90
2017-10-07T02:41:15.302Z,101347.38
2017-10-07T02:43:42.460Z,101339.53
2017-10-07T02:46:09.741Z,101343.41
2017-10-07T02:48:36.899Z,101330.86
2017-10-07T02:51:04.054Z,101336.50
2017-10-07T02:53:31.216Z,101331.28
2017-10-07T02:55:58.371Z,101319.95
2017-10-07T02:58:25.518Z,101319.53
2017-10-07T03:00:52.661Z,101322.56
2017-10-07T03:03:19.810Z,101316.03
2017-10-07T03:05:46.949Z,101317.80
2017-10-07T03:08:14.088Z,101318.64
2017-10-07T03:10:41.267Z,101316.45
2017-10-07T03:13:08.431Z,101311.70
2017-10-07T03:15:35.593Z,101310.44
2017-10-07T03:18:02.748Z,101307.82
2017-10-07T03:20:29.888Z,101308.20
2017-10-07T03:22:57.046Z,101314.73
2017-10-07T03:25:24.190Z,101316.03
2017-10-07T03:27:51.333Z,101313.84
2017-10-07T03:30:18.493Z,101311.27
2017-10-07T03:32:45.637Z,101314.73
2017-10-07T03:35:12.789Z,101316.50
2017-10-07T03:37:39.948Z,101306.94
2017-10-07T03:40:07.093Z,101306.05
2017-10-07T03:42:34.276Z,101295.60
2017-10-07T03:45:01.439Z,101296.07
2017-10-07T03:47:29.341Z,101290.80
2017-10-07T03:49:56.503Z,101283.43
2017-10-07T03:52:23.676Z,101286.05
2017-10-07T03:54:50.835Z,101277.78
2017-10-07T03:57:17.977Z,101274.75
2017-10-07T03:59:45.141Z,101275.59
2017-10-07T04:02:12.285Z,101269.58
2017-10-07T04:04:39.448Z,101276.95
2017-10-07T04:07:06.602Z,101268.22
2017-10-07T04:09:33.759Z,101269.53
2017-10-07T04:12:00.944Z,101263.00
2017-10-07T04:14:28.193Z,101253.44
2017-10-07T04:16:55.364Z,101260.39
2017-10-07T04:19:22.502Z,101258.20
2017-10-07T04:21:49.646Z,101258.20
2017-10-07T04:24:16.797Z,101254.33
2017-10-07T04:26:43.965Z,101257.78
2017-10-07T04:29:11.109Z,101263.42
2017-10-07T04:31:38.273Z,101268.65
2017-10-07T04:34:05.413Z,101265.66
2017-10-07T04:36:32.552Z,101271.68
2017-10-07T04:38:59.723Z,101275.13
2017-10-07T04:41:26.877Z,101276.02
2017-10-07T04:43:54.032Z,101283.02
2017-10-07T04:46:21.221Z,101281.70
2017-10-07T04:48:48.393Z,101283.02
2017-10-07T04:51:15.562Z,101280.40
2017-10-07T04:53:42.705Z,101282.59
2017-10-07T04:56:09.849Z,101278.67
2017-10-07T04:58:37.200Z,101282.59
2017-10-07T05:01:04.350Z,101277.78
2017-10-07T05:03:31.512Z,101278.25
2017-10-07T05:05:58.685Z,101270.42
2017-10-07T05:08:25.848Z,101275.59
2017-10-07T05:10:52.994Z,101270.00
2017-10-07T05:13:20.157Z,101272.56
2017-10-07T05:15:47.302Z,101267.34
2017-10-07T05:18:14.454Z,101255.63
2017-10-07T05:20:41.615Z,101258.20
2017-10-07T05:23:08.776Z,101265.19
2017-10-07T05:25:35.936Z,101260.81
2017-10-07T05:28:03.292Z,101255.17
2017-10-07T05:30:30.457Z,101246.91
2017-10-07T05:32:57.615Z,101253.86
2017-10-07T05:35:24.757Z,101253.44
2017-10-07T05:37:51.917Z,101239.97
2017-10-07T05:40:19.062Z,101234.73
2017-10-07T05:42:46.228Z,101233.86
2017-10-07T05:45:13.373Z,101221.73
2017-10-07T05:47:40.509Z,101223.87
2017-10-07T05:50:07.676Z,101211.70
2017-10-07T05:52:34.841Z,101216.87
2017-10-07T05:55:02.006Z,101210.34
2017-10-07T05:57:29.191Z,101207.78
2017-10-07T05:59:56.342Z,101205.12
2017-10-07T06:02:23.494Z,101209.52
2017-10-07T06:04:50.641Z,101213.84
2017-10-07T06:07:17.786Z,101209.93
2017-10-07T06:09:44.954Z,101214.27
2017-10-07T06:12:12.187Z,101203.83
2017-10-07T06:14:39.337Z,101192.53
2017-10-07T06:17:06.486Z,101182.94
2017-10-07T06:19:33.646Z,101182.98
2017-10-07T06:22:00.811Z,101177.80
2017-10-07T06:24:27.972Z,101189.50
2017-10-07T06:26:55.132Z,101180.32
2017-10-07T06:29:22.293Z,101182.14
2017-10-07T06:31:49.438Z,101171.23
2017-10-07T06:34:16.577Z,101181.25
2017-10-07T06:36:43.736Z,101187.73
2017-10-07T06:39:10.892Z,101179.90
2017-10-07T06:41:38.033Z,101168.61
2017-10-07T06:44:05.181Z,101181.20
2017-10-07T06:46:32.350Z,101166.00
2017-10-07T06:48:59.508Z,101168.61
2017-10-07T06:51:26.671Z,101165.53
2017-10-07T06:53:53.822Z,101165.16
2017-10-07T06:56:20.980Z,101175.56
2017-10-07T06:58:48.907Z,101166.47
2017-10-07T07:01:16.077Z,101166.42
2017-10-07T07:03:43.258Z,101157.28
2017-10-07T07:06:10.397Z,101156.02
2017-10-07T07:08:37.543Z,101154.30
2017-10-07T07:11:04.702Z,101155.14
2017-10-07T07:13:31.855Z,101152.99
2017-10-07T07:15:59.005Z,101150.75
2017-10-07T07:18:26.169Z,101140.35
2017-10-07T07:20:53.326Z,101137.28
2017-10-07T07:23:20.508Z,101133.36
2017-10-07T07:25:47.667Z,101134.25
2017-10-07T07:28:14.828Z,101129.91
2017-10-07T07:30:41.969Z,101129.44
2017-10-07T07:33:09.116Z,101124.69
2017-10-07T07:35:36.257Z,101122.96
2017-10-07T07:38:03.411Z,101123.80
2017-10-07T07:40:30.572Z,101120.34
2017-10-07T07:42:57.709Z,101115.55
2017-10-07T07:45:24.871Z,101109.02
2017-10-07T07:47:52.014Z,101111.16
2017-10-07T07:50:19.166Z,101115.55
2017-10-07T07:52:46.388Z,101111.16
2017-10-07T07:55:13.572Z,101102.48
2017-10-07T07:57:40.729Z,101105.09
2017-10-07T08:00:07.894Z,101094.23
2017-10-07T08:02:35.051Z,101090.27
2017-10-07T08:05:02.215Z,101087.70
2017-10-07T08:07:29.357Z,101087.23
2017-10-07T08:09:56.521Z,101086.40
2017-10-07T08:12:23.657Z,101083.33
2017-10-07T08:14:50.797Z,101078.98
2017-10-07T08:17:17.946Z,101083.28
2017-10-07T08:19:45.086Z,101079.41
2017-10-07T08:22:12.225Z,101082.91
2017-10-07T08:24:39.381Z,101065.93
2017-10-07T08:27:07.308Z,101063.78
2017-10-07T08:29:34.460Z,101070.31
2017-10-07T08:32:01.611Z,101068.96
2017-10-07T08:34:28.793Z,101050.73
2017-10-07T08:36:55.929Z,101060.70
2017-10-07T08:39:23.087Z,101061.59
2017-10-07T08:41:50.223Z,101060.70
2017-10-07T08:44:17.369Z,101052.45
2017-10-07T08:46:44.519Z,101050.77
2017-10-07T08:49:11.676Z,101049.00
2017-10-07T08:51:38.826Z,101048.53
2017-10-07T08:54:05.957Z,101048.07
2017-10-07T08:56:33.102Z,101054.64
2017-10-07T08:59:00.268Z,101034.17
2017-10-07T09:01:27.427Z,101045.45
2017-10-07T09:03:54.585Z,101035.90
2017-10-07T09:06:21.739Z,101023.73
2017-10-07T09:08:48.955Z,101023.27
2017-10-07T09:11:16.099Z,101017.20
2017-10-07T09:13:43.254Z,101014.59
2017-10-07T09:16:10.397Z,101008.06
2017-10-07T09:18:37.541Z,101003.26
2017-10-07T09:21:04.704Z,100988.89
2017-10-07T09:23:31.851Z,100993.70
2017-10-07T09:25:59.016Z,100995.00
2017-10-07T09:28:26.195Z,100995.00
2017-10-07T09:30:53.337Z,100993.23
2017-10-07T09:33:20.485Z,100981.95
2017-10-07T09:35:47.638Z,100973.23
2017-10-07T09:38:14.819Z,100965.86
2017-10-07T09:40:41.981Z,100964.09
2017-10-07T09:43:09.134Z,100969.36
2017-10-07T09:45:36.291Z,100962.36
2017-10-07T09:48:03.440Z,100955.00
2017-10-07T09:50:30.589Z,100949.31
2017-10-07T09:52:57.748Z,100946.23
2017-10-07T09:55:24.907Z,100933.64
2017-10-07T09:57:52.071Z,100934.95
2017-10-07T10:00:19.230Z,100931.91
2017-10-07T10:02:46.392Z,100928.88
2017-10-07T10:05:13.572Z,100920.16
2017-10-07T10:07:40.718Z,100920.16
2017-10-07T10:10:07.951Z,100923.19
2017-10-07T10:12:35.098Z,100917.97
2017-10-07T10:15:02.242Z,100914.47
2017-10-07T10:17:29.402Z,100917.97
2017-10-07T10:19:56.564Z,100917.13
2017-10-07T10:22:23.709Z,100907.99
2017-10-07T10:24:50.856Z,100914.94
2017-10-07T10:27:18.005Z,100917.13
2017-10-07T10:29:45.150Z,100910.98
2017-10-07T10:32:12.335Z,100908.83
2017-10-07T10:34:39.494Z,100894.94
2017-10-07T10:37:06.656Z,100894.98
2017-10-07T10:39:33.802Z,100907.90
2017-10-07T10:42:00.962Z,100900.43
2017-10-07T10:44:28.108Z,100901.09
2017-10-07T10:46:55.266Z,100894.31
2017-10-07T10:49:22.423Z,100886.44
2017-10-07T10:51:49.585Z,100884.61
2017-10-07T10:54:16.728Z,100889.78
2017-10-07T10:56:43.867Z,100888.37
2017-10-07T10:59:11.013Z,100884.80
2017-10-07T11:01:38.173Z,100886.89
2017-10-07T11:04:05.338Z,100885.48
2017-10-07T11:06:32.490Z,100891.08
2017-10-07T11:08:59.632Z,100884.50
2017-10-07T11:11:26.778Z,100880.06
2017-10-07T11:13:53.947Z,100874.32
2017-10-07T11:16:21.091Z,100870.41
2017-10-07T11:18:48.234Z,100866.41
2017-10-07T11:21:15.396Z,100859.35
2017-10-07T11:23:42.541Z,100858.94
2017-10-07T11:26:09.694Z,100849.80
2017-10-07T11:28:36.856Z,100846.77
2017-10-07T11:31:04.006Z,100842.84
2017-10-07T11:33:31.164Z,100831.04
2017-10-07T11:35:58.319Z,100834.02
2017-10-07T11:38:25.472Z,100834.44
2017-10-07T11:40:52.631Z,100828.74
2017-10-07T11:43:19.768Z,100830.47
2017-10-07T11:45:46.921Z,100827.97
2017-10-07T11:48:14.087Z,100828.72
2017-10-07T11:50:41.229Z,100804.13
2017-10-07T11:53:08.373Z,100799.94
2017-10-07T11:55:35.523Z,100801.80
2017-10-07T11:58:02.679Z,100798.59
2017-10-07T12:00:29.821Z,100805.77
2017-10-07T12:02:56.980Z,100789.00
2017-10-07T12:05:24.130Z,100784.50
2017-10-07T12:07:51.287Z,100783.52
2017-10-07T12:10:18.652Z,100774.23
2017-10-07T12:12:46.584Z,100773.29
2017-10-07T12:15:13.744Z,100764.88
2017-10-07T12:17:40.894Z,100757.81
2017-10-07T12:20:08.052Z,100756.45
2017-10-07T12:22:35.217Z,100750.76
2017-10-07T12:25:02.543Z,100750.66
2017-10-07T12:27:29.699Z,100747.20
2017-10-07T12:29:56.869Z,100742.39
2017-10-07T12:32:24.028Z,100733.24
2017-10-07T12:34:51.173Z,100736.33
2017-10-07T12:37:18.341Z,100730.27
2017-10-07T12:39:45.486Z,100732.45
2017-10-07T12:42:12.644Z,100720.70
2017-10-07T12:44:39.799Z,100721.06
2017-10-07T12:47:06.938Z,100718.31
2017-10-07T12:49:34.083Z,100711.61
2017-10-07T12:52:01.437Z,100699.70
2017-10-07T12:54:28.598Z,100694.30
2017-10-07T12:56:55.742Z,100690.27
2017-10-07T12:59:22.912Z,100679.68
2017-10-07T13:01:50.054Z,100676.90
2017-10-07T13:04:17.760Z,100679.35
2017-10-07T13:06:44.954Z,100672.30
2017-10-07T13:09:12.115Z,100665.23
2017-10-07T13:11:39.273Z,100665.09
2017-10-07T13:14:06.415Z,100656.24
2017-10-07T13:16:33.569Z,100653.99
2017-10-07T13:19:00.727Z,100652.10
2017-10-07T13:21:27.879Z,100655.08
2017-10-07T13:23:55.043Z,100657.55
2017-10-07T13:26:22.231Z,100645.67
2017-10-07T13:28:49.382Z,100627.27
2017-10-07T13:31:16.560Z,100640.70
2017-10-07T13:33:43.714Z,100631.38
2017-10-07T13:36:10.875Z,100634.41
2017-10-07T13:38:38.200Z,100631.33
2017-10-07T13:41:06.132Z,100637.25
2017-10-07T13:43:33.293Z,100627.63
2017-10-07T13:46:00.446Z,100621.45
2017-10-07T13:48:27.634Z,100615.69
2017-10-07T13:50:54.795Z,100613.80
2017-10-07T13:53:21.942Z,100616.63
2017-10-07T13:55:50.253Z,100619.25
2017-10-07T13:58:17.423Z,100603.55
2017-10-07T14:00:44.556Z,100597.44
2017-10-07T14:03:11.717Z,100599.58
2017-10-07T14:05:38.862Z,100598.16
2017-10-07T14:08:05.998Z,100601.08
2017-10-07T14:10:33.141Z,100587.89
2017-10-07T14:13:00.276Z,100595.17
2017-10-07T14:15:27.428Z,100578.53
2017-10-07T14:17:54.566Z,100573.72
2017-10-07T14:20:22.083Z,100572.89
2017-10-07T14:22:49.240Z,100571.10
2017-10-07T14:25:16.381Z,100565.19
2017-10-07T14:27:43.527Z,100569.49
2017-10-07T14:30:10.696Z,100552.49
2017-10-07T14:32:37.861Z,100545.56
2017-10-07T14:35:05.015Z,100547.15
2017-10-07T14:37:32.158Z,100540.13
2017-10-07T14:39:59.535Z,100551.31
2017-10-07T14:42:27.026Z,100543.41
2017-10-07T14:44:54.189Z,100545.38
2017-10-07T14:47:21.329Z,100531.74
2017-10-07T14:49:48.498Z,100532.94
2017-10-07T14:52:15.652Z,100528.48
2017-10-07T14:54:42.797Z,100523.61
2017-10-07T14:57:09.957Z,100521.77
2017-10-07T14:59:37.121Z,100514.08
2017-10-07T15:02:04.292Z,100513.42
2017-10-07T15:04:31.623Z,100511.23
2017-10-07T15:06:58.769Z,100502.55
2017-10-07T15:09:25.935Z,100504.63
2017-10-07T15:11:53.091Z,100500.53
2017-10-07T15:14:20.268Z,100499.16
2017-10-07T15:16:47.469Z,100494.81
2017-10-07T15:19:14.621Z,100493.47
2017-10-07T15:21:41.893Z,100486.92
2017-10-07T15:24:09.056Z,100477.77
2017-10-07T15:26:36.206Z,100478.13
2017-10-07T15:29:03.377Z,100468.55
2017-10-07T15:31:30.628Z,100472.53
2017-10-07T15:33:57.770Z,100469.86
2017-10-07T15:36:24.919Z,100468.61
2017-10-07T15:38:52.131Z,100468.66
2017-10-07T15:41:19.324Z,100463.91
2017-10-07T15:43:46.484Z,100463.55
2017-10-07T15:46:13.647Z,100465.27
2017-10-07T15:48:40.786Z,100465.27
2017-10-07T15:51:07.926Z,100470.87
2017-10-07T15:53:35.085Z,100465.98
2017-10-07T15:56:02.234Z,100459.86
2017-10-07T15:58:29.395Z,100451.90
2017-10-07T16:00:56.549Z,100454.93
2017-10-07T16:03:23.710Z,100451.36
2017-10-07T16:05:50.853Z,100452.61
2017-10-07T16:08:18.025Z,100442.47
2017-10-07T16:10:45.171Z,100451.63
2017-10-07T16:13:12.356Z,100450.63
2017-10-07T16:15:39.519Z,100450.98
2017-10-07T16:18:06.664Z,100448.24
2017-10-07T16:20:33.811Z,100446.04
2017-10-07T16:23:00.966Z,100442.06
2017-10-07T16:25:28.141Z,100446.40
2017-10-07T16:27:55.293Z,100449.31
2017-10-07T16:30:22.429Z,100450.56
2017-10-07T16:32:49.586Z,100437.18
2017-10-07T16:35:16.746Z,100434.63
2017-10-07T16:37:43.880Z,100426.89
2017-10-07T16:40:11.018Z,100427.48
2017-10-07T16:42:38.645Z,100419.93
2017-10-07T16:45:05.876Z,100427.19
2017-10-07T16:47:33.079Z,100425.41
2017-10-07T16:50:00.223Z,100426.23
2017-10-07T16:52:27.370Z,100413.09
2017-10-07T16:54:54.528Z,100412.67
2017-10-07T16:57:21.682Z,100415.23
2017-10-07T16:59:49.128Z,100421.27
2017-10-07T17:02:16.283Z,100417.75
2017-10-07T17:04:43.475Z,100412.11
2017-10-07T17:07:10.650Z,100422.67
2017-10-07T17:09:37.835Z,100404.41
2017-10-07T17:12:05.001Z,100400.59
2017-10-07T17:14:32.164Z,100398.94
2017-10-07T17:16:59.344Z,100397.69
2017-10-07T17:19:26.521Z,100385.91
2017-10-07T17:21:53.669Z,100383.35
2017-10-07T17:24:20.832Z,100373.72
2017-10-07T17:26:47.992Z,100382.81
2017-10-07T17:29:15.135Z,100379.72
2017-10-07T17:31:42.269Z,100369.19
2017-10-07T17:34:09.414Z,100377.41
2017-10-07T17:36:36.580Z,100376.03
2017-10-07T17:39:03.725Z,100369.43
2017-10-07T17:41:30.878Z,100362.05
2017-10-07T17:43:58.015Z,100355.09
2017-10-07T17:46:25.173Z,100346.89
2017-10-07T17:48:52.313Z,100357.83
2017-10-07T17:51:19.592Z,100353.97
2017-10-07T17:53:46.774Z,100349.21
2017-10-07T17:56:15.759Z,100352.91
2017-10-07T17:58:42.995Z,100358.61
2017-10-07T18:01:10.184Z,100356.27
2017-10-07T18:03:37.322Z,100354.37
2017-10-07T18:06:04.457Z,100355.32
2017-10-07T18:08:31.612Z,100347.53
2017-10-07T18:10:58.769Z,100350.92
2017-10-07T18:13:25.913Z,100340.93
2017-10-07T18:15:53.048Z,100336.94
2017-10-07T18:18:20.208Z,100332.95
2017-10-07T18:20:47.365Z,100338.48
2017-10-07T18:23:14.524Z,100334.14
2017-10-07T18:25:41.661Z,100328.79
2017-10-07T18:28:08.812Z,100333.61
2017-10-07T18:30:35.991Z,100336.70
2017-10-07T18:33:03.164Z,100329.75
2017-10-07T18:35:30.320Z,100325.34
2017-10-07T18:37:57.485Z,100321.42
2017-10-07T18:40:24.658Z,100321.77
2017-10-07T18:42:51.906Z,100314.76
2017-10-07T18:45:19.246Z,100303.88
2017-10-07T18:47:46.423Z,100297.39
2017-10-07T18:50:14.265Z,100300.91
2017-10-07T18:52:42.041Z,100304.41
2017-10-07T18:55:09.392Z,100301.37
2017-10-07T18:57:36.541Z,100307.98
2017-10-07T19:00:03.804Z,100298.82
2017-10-07T19:02:30.959Z,100299.59
2017-10-07T19:04:58.141Z,100301.73
2017-10-07T19:07:25.332Z,100302.98
2017-10-07T19:09:52.535Z,100305.50
2017-10-07T19:12:20.035Z,100300.27
2017-10-07T19:14:47.223Z,100301.67
2017-10-07T19:17:14.377Z,100301.73
2017-10-07T19:19:41.534Z,100305.66
2017-10-07T19:22:08.689Z,100303.99
2017-10-07T19:24:35.852Z,100305.30
2017-10-07T19:27:03.010Z,100309.23
2017-10-07T19:29:30.158Z,100304.77
2017-10-07T19:31:57.322Z,100292.52
2017-10-07T19:34:24.515Z,100291.94
2017-10-07T19:36:51.955Z,100295.81
2017-10-07T19:39:19.873Z,100297.11
2017-10-07T19:41:47.318Z,100303.72
2017-10-07T19:44:14.469Z,100298.07
2017-10-07T19:46:41.622Z,100309.37
2017-10-07T19:49:08.778Z,100304.97
2017-10-07T19:51:36.087Z,100288.31
2017-10-07T19:54:03.264Z,100295.20
2017-10-07T19:56:30.698Z,100298.66
2017-10-07T19:58:57.857Z,100294.31
2017-10-07T20:01:25.018Z,100286.95
2017-10-07T20:03:52.181Z,100286.53
2017-10-07T20:06:19.313Z,100277.84
2017-10-07T20:08:46.450Z,100272.20
2017-10-07T20:11:13.590Z,100282.31
2017-10-07T20:13:41.528Z,100282.72
2017-10-07T20:16:08.821Z,100279.98
2017-10-07T20:18:36.013Z,100286.11
2017-10-07T20:21:03.257Z,100288.61
2017-10-07T20:23:30.399Z,100274.16
2017-10-07T20:25:57.556Z,100282.00
2017-10-07T20:28:24.900Z,100286.82
2017-10-07T20:30:52.039Z,100286.47
2017-10-07T20:33:19.462Z,100282.55
2017-10-07T20:35:46.625Z,100280.81
2017-10-07T20:38:14.526Z,100284.80
2017-10-07T20:40:41.681Z,100284.74
2017-10-07T20:43:08.999Z,100287.77
2017-10-07T20:45:36.921Z,100294.61
2017-10-07T20:48:04.080Z,100290.69
2017-10-07T20:50:31.242Z,100305.02
2017-10-07T20:52:58.381Z,100311.08
2017-10-07T20:55:25.536Z,100308.05
2017-10-07T20:57:52.673Z,100296.81
2017-10-07T21:00:19.813Z,100302.46
2017-10-07T21:02:46.972Z,100297.29
2017-10-07T21:05:14.124Z,100296.45
2017-10-07T21:07:41.310Z,100302.17
2017-10-07T21:10:08.445Z,100286.17
2017-10-07T21:12:35.608Z,100288.85
2017-10-07T21:15:02.754Z,100303.53
2017-10-07T21:17:29.915Z,100294.44
2017-10-07T21:19:57.197Z,100300.98
2017-10-07T21:22:24.386Z,100301.94
2017-10-07T21:24:51.530Z,100294.63
2017-10-07T21:27:18.692Z,100298.64
2017-10-07T21:29:45.854Z,100289.95
2017-10-07T21:32:12.989Z,100297.93
2017-10-07T21:34:40.138Z,100295.38
2017-10-07T21:37:07.325Z,100287.59
2017-10-07T21:39:34.489Z,100290.32
2017-10-07T21:42:01.650Z,100289.91
2017-10-07T21:44:28.834Z,100288.24
2017-10-07T21:46:55.966Z,100291.37
2017-10-07T21:49:23.142Z,100292.77
2017-10-07T21:51:50.301Z,100292.41
2017-10-07T21:54:17.456Z,100296.45
2017-10-07T21:56:44.597Z,100297.77
2017-10-07T21:59:11.734Z,100287.84
2017-10-07T22:01:38.891Z,100295.27
2017-10-07T22:04:06.044Z,100283.20
2017-10-07T22:06:33.217Z,100282.84
2017-10-07T22:09:00.373Z,100285.94
2017-10-07T22:11:27.535Z,100287.72
2017-10-07T22:13:54.668Z,100289.51
2017-10-07T22:16:21.820Z,100279.25
2017-10-07T22:18:49.109Z,100274.80
2017-10-07T22:21:16.264Z,100281.24
2017-10-07T22:23:43.399Z,100281.39
2017-10-07T22:26:10.537Z,100283.30
2017-10-07T22:28:38.455Z,100278.19
2017-10-07T22:31:05.616Z,100280.87
2017-10-07T22:33:32.773Z,100281.34
2017-10-07T22:35:59.928Z,100269.63
2017-10-07T22:38:27.069Z,100272.73
2017-10-07T22:40:54.224Z,100280.63
2017-10-07T22:43:21.361Z,100279.42
2017-10-07T22:45:48.524Z,100280.78
2017-10-07T22:48:15.679Z,100286.97
2017-10-07T22:50:42.833Z,100287.38
2017-10-07T22:53:09.997Z,100284.41
2017-10-07T22:55:37.137Z,100282.75
2017-10-07T22:58:04.272Z,100281.09
2017-10-07T23:00:31.435Z,100281.56
2017-10-07T23:02:58.565Z,100274.61
2017-10-07T23:05:25.705Z,100287.74
2017-10-07T23:07:52.846Z,100286.02
2017-10-07T23:10:20.002Z,100292.62
2017-10-07T23:12:47.311Z,100290.06
2017-10-07T23:15:15.217Z,100293.56
2017-10-07T23:17:42.357Z,100294.50
2017-10-07T23:20:09.501Z,100298.00
2017-10-07T23:22:36.643Z,100295.45
2017-10-07T23:25:03.791Z,100292.89
2017-10-07T23:27:30.950Z,100301.63
2017-10-07T23:29:58.090Z,100300.38
2017-10-07T23:32:25.245Z,100300.38
2017-10-07T23:34:52.412Z,100300.85
2017-10-07T23:37:19.548Z,100298.72
2017-10-07T23:39:46.694Z,100300.91
2017-10-07T23:42:13.834Z,100300.56
2017-10-07T23:44:40.993Z,100309.71
2017-10-07T23:47:08.152Z,100310.19
2017-10-07T23:49:35.315Z,100315.00
2017-10-07T23:52:02.479Z,100318.50
2017-10-07T23:54:29.800Z,100318.50
2017-10-07T23:56:56.960Z,100319.05
2017-10-07T23:59:24.110Z,100322.91
